Strona główna
METAR-TAF:

METAR-TAF

Lotnisko :

Port lotniczy Kopenhaga-Kastrup

Kopenhaga, Dania

Szerokość geograficzna: 55-37N, Długość geograficzna: 012-39E, wysokość: 5 m

Aktualna obserwacja pogody

Raport powstał 34 minut temu, godzina 12:20 UTC
Wiatr 6 kt od południe
Temperatura 16°C
Wilgotność 72%
Ciśnienie 1018 hPa
Widzialność 10 km lub więcej
Brak chmur poniżej 1500 m i brak chmur cumulonimbus

METAR: EKCH 161220Z 17006KT CAVOK 16/11 Q1018 NOSIG

czas: 14:54 (12:54 UTC)

Prognoza

Raport powstał 1 godzina i 54 minut temu, godzina 11:00 UTC
Prognoza ważna od 16 godzina 12 UTC do 17 godzina 12 UTC
Wiatr 5 kt od południe
Widzialność 10 km lub więcej
Mało chmury na wysokości 1500 ft
Prawdopodobieństwo 40%
od 17 godzina 00 UTC do 17 godzina 09 UTC
Wiatr 2 kt z kierunków zmiennych
Widzialność: 0200 m
na wysokości 100 ft
mgła

TAF: EKCH 161100Z 1612/1712 18005KT 9999 FEW015 PROB40 1700/1709 VRB02KT 0200 FG VV001

Obserwacja i prognoza pogody dla ponad 4000 lotnisk (raport METAR i TAF).

Dostępne stacje oznaczono żółtymi i czerwonymi punktami na mapie.

Najedź kursorem aby zobaczyć nazwę stacji.

Kliknij aby zobaczyć obserwacje i prognozy pogody.

Aby zmienić mapę: kliknij na zielony przycisk z czarnym krzyżykiem, aby powiększyć; na zielony przycisk z myślnikiem, aby pomniejszyć; na zielone strzałki, aby przejść do map sąsiednich.


METAR-TAF: